createdAt,value
2019-02-02T00:00:23.230Z,40.95
2019-02-02T00:01:27.080Z,42.95
2019-02-02T00:02:30.758Z,37.30
2019-02-02T00:03:34.560Z,45.50
2019-02-02T00:04:38.142Z,39.63
2019-02-02T00:05:41.799Z,41.00
2019-02-02T00:06:45.379Z,38.78
2019-02-02T00:07:49.015Z,35.98
2019-02-02T00:08:52.678Z,46.92
2019-02-02T00:09:56.405Z,35.65
2019-02-02T00:11:00.064Z,43.58
2019-02-02T00:12:03.717Z,36.98
2019-02-02T00:13:07.453Z,39.15
2019-02-02T00:14:11.180Z,36.80
2019-02-02T00:15:14.854Z,40.92
2019-02-02T00:16:18.685Z,38.35
2019-02-02T00:17:22.325Z,41.15
2019-02-02T00:18:26.004Z,38.95
2019-02-02T00:19:29.652Z,38.00
2019-02-02T00:20:33.366Z,39.18
2019-02-02T00:21:36.974Z,44.03
2019-02-02T00:22:40.692Z,39.83
2019-02-02T00:23:44.274Z,39.13
2019-02-02T00:24:47.874Z,41.45
2019-02-02T00:25:51.481Z,37.42
2019-02-02T00:26:55.073Z,45.17
2019-02-02T00:27:58.671Z,39.90
2019-02-02T00:29:02.307Z,41.25
2019-02-02T00:30:08.972Z,39.67
2019-02-02T00:31:12.562Z,46.45
2019-02-02T00:32:16.156Z,45.03
2019-02-02T00:33:20.088Z,47.10
2019-02-02T00:34:23.678Z,39.48
2019-02-02T00:35:27.273Z,41.28
2019-02-02T00:36:30.903Z,42.20
2019-02-02T00:37:34.483Z,41.05
2019-02-02T00:38:38.068Z,40.12
2019-02-02T00:39:41.654Z,41.05
2019-02-02T00:40:45.232Z,36.28
2019-02-02T00:41:48.849Z,37.23
2019-02-02T00:42:52.522Z,39.40
2019-02-02T00:43:56.112Z,43.63
2019-02-02T00:44:59.689Z,37.98
2019-02-02T00:46:03.366Z,36.95
2019-02-02T00:47:06.995Z,37.88
2019-02-02T00:48:10.662Z,41.73
2019-02-02T00:49:14.294Z,40.67
2019-02-02T00:50:18.121Z,40.50
2019-02-02T00:51:21.707Z,39.73
2019-02-02T00:52:25.390Z,40.88
2019-02-02T00:53:29.023Z,39.85
2019-02-02T00:54:32.692Z,42.93
2019-02-02T00:55:36.407Z,39.20
2019-02-02T00:56:39.990Z,44.15
2019-02-02T00:57:53.093Z,45.30
2019-02-02T00:58:48.988Z,40.58
2019-02-02T00:59:52.599Z,43.85
2019-02-02T01:00:56.256Z,40.45
2019-02-02T01:01:59.983Z,46.85
2019-02-02T01:03:04.327Z,43.20
2019-02-02T01:04:08.087Z,44.08
2019-02-02T01:05:17.725Z,51.77
2019-02-02T01:06:21.358Z,42.38
2019-02-02T01:07:25.033Z,42.55
2019-02-02T01:08:28.715Z,41.48
2019-02-02T01:09:32.352Z,40.85
2019-02-02T01:10:38.360Z,45.05
2019-02-02T01:11:42.354Z,38.73
2019-02-02T01:12:46.080Z,36.00
2019-02-02T01:13:49.955Z,38.88
2019-02-02T01:14:53.548Z,41.98
2019-02-02T01:15:57.220Z,41.18
2019-02-02T01:17:00.909Z,43.60
2019-02-02T01:18:05.235Z,38.10
2019-02-02T01:19:08.980Z,36.53
2019-02-02T01:20:12.799Z,42.75
2019-02-02T01:21:16.522Z,48.38
2019-02-02T01:22:20.188Z,35.90
2019-02-02T01:23:23.762Z,36.55
2019-02-02T01:24:27.419Z,41.40
2019-02-02T01:25:31.151Z,36.98
2019-02-02T01:26:34.717Z,36.10
2019-02-02T01:27:38.744Z,36.70
2019-02-02T01:28:42.400Z,39.88
2019-02-02T01:29:46.058Z,38.58
2019-02-02T01:30:49.688Z,38.20
2019-02-02T01:31:53.291Z,40.67
2019-02-02T01:32:56.953Z,36.90
2019-02-02T01:34:00.589Z,39.90
2019-02-02T01:35:06.216Z,36.30
2019-02-02T01:36:09.850Z,33.42
2019-02-02T01:37:13.507Z,38.15
2019-02-02T01:38:17.099Z,37.15
2019-02-02T01:39:20.672Z,40.48
2019-02-02T01:40:26.707Z,38.20
2019-02-02T01:41:30.332Z,36.28
2019-02-02T01:42:33.934Z,31.07
2019-02-02T01:43:37.576Z,34.08
2019-02-02T01:44:41.269Z,34.90
2019-02-02T01:45:44.856Z,38.10
2019-02-02T01:46:48.481Z,38.63
2019-02-02T01:47:52.337Z,36.65
2019-02-02T01:48:55.921Z,42.83
2019-02-02T01:49:59.529Z,34.73
2019-02-02T01:51:03.157Z,35.70
2019-02-02T01:52:06.732Z,37.53
2019-02-02T01:53:10.312Z,42.80
2019-02-02T01:54:14.049Z,37.05
2019-02-02T01:55:18.394Z,35.55
2019-02-02T01:56:22.013Z,33.35
2019-02-02T01:57:25.668Z,37.08
2019-02-02T01:58:29.299Z,34.70
2019-02-02T01:59:32.878Z,33.15
2019-02-02T02:00:36.758Z,40.85
2019-02-02T02:01:41.767Z,36.90
2019-02-02T02:02:45.594Z,38.33
2019-02-02T02:03:49.222Z,36.25
2019-02-02T02:04:52.807Z,37.23
2019-02-02T02:05:56.539Z,38.05
2019-02-02T02:07:00.122Z,39.42
2019-02-02T02:08:03.996Z,38.02
2019-02-02T02:09:08.604Z,36.65
2019-02-02T02:10:17.001Z,38.13
2019-02-02T02:11:20.668Z,37.67
2019-02-02T02:12:24.261Z,39.40
2019-02-02T02:13:27.962Z,34.48
2019-02-02T02:14:31.625Z,36.90
2019-02-02T02:15:35.203Z,37.85
2019-02-02T02:16:39.025Z,35.48
2019-02-02T02:17:42.840Z,37.42
2019-02-02T02:18:46.486Z,38.00
2019-02-02T02:19:50.071Z,34.60
2019-02-02T02:20:53.667Z,40.92
2019-02-02T02:21:57.250Z,39.50
2019-02-02T02:23:00.844Z,38.73
2019-02-02T02:24:04.664Z,39.38
2019-02-02T02:25:13.739Z,39.92
2019-02-02T02:26:17.334Z,40.67
2019-02-02T02:27:20.921Z,38.17
2019-02-02T02:28:28.180Z,38.38
2019-02-02T02:29:29.812Z,40.75
2019-02-02T02:30:33.450Z,38.05
2019-02-02T02:31:37.040Z,47.93
2019-02-02T02:32:40.645Z,36.35
2019-02-02T02:33:44.240Z,42.05
2019-02-02T02:34:47.873Z,43.68
2019-02-02T02:35:51.524Z,36.13
2019-02-02T02:36:55.182Z,38.30
2019-02-02T02:37:58.774Z,37.98
2019-02-02T02:39:02.602Z,42.93
2019-02-02T02:40:09.541Z,41.90
2019-02-02T02:41:13.192Z,41.77
2019-02-02T02:42:16.786Z,43.52
2019-02-02T02:43:20.387Z,38.67
2019-02-02T02:44:23.947Z,45.85
2019-02-02T02:45:27.661Z,41.95
2019-02-02T02:46:31.236Z,37.05
2019-02-02T02:47:34.824Z,40.98
2019-02-02T02:48:38.489Z,38.88
2019-02-02T02:49:42.145Z,42.58
2019-02-02T02:50:45.732Z,43.42
2019-02-02T02:51:49.387Z,36.65
2019-02-02T02:52:53.038Z,39.27
2019-02-02T02:53:56.622Z,42.88
2019-02-02T02:55:00.268Z,38.92
2019-02-02T02:56:04.506Z,43.55
2019-02-02T02:57:08.102Z,43.05
2019-02-02T02:58:11.695Z,38.92
2019-02-02T02:59:15.296Z,40.03
2019-02-02T03:00:21.951Z,40.48
2019-02-02T03:01:25.660Z,39.92
2019-02-02T03:02:29.261Z,39.00
2019-02-02T03:03:32.896Z,37.90
2019-02-02T03:04:36.515Z,42.95
2019-02-02T03:05:40.107Z,41.20
2019-02-02T03:06:43.691Z,42.35
2019-02-02T03:07:48.460Z,42.93
2019-02-02T03:08:52.274Z,42.83
2019-02-02T03:09:55.934Z,44.08
2019-02-02T03:10:59.530Z,37.65
2019-02-02T03:12:03.138Z,41.90
2019-02-02T03:13:06.879Z,40.23
2019-02-02T03:14:10.491Z,39.25
2019-02-02T03:15:16.810Z,40.38
2019-02-02T03:16:20.392Z,40.10
2019-02-02T03:17:24.009Z,41.13
2019-02-02T03:18:27.674Z,39.92
2019-02-02T03:19:31.249Z,35.08
2019-02-02T03:20:34.830Z,44.55
2019-02-02T03:21:38.484Z,37.23
2019-02-02T03:22:42.065Z,43.50
2019-02-02T03:23:45.715Z,39.40
2019-02-02T03:24:49.344Z,39.65
2019-02-02T03:25:53.072Z,36.77
2019-02-02T03:26:56.640Z,43.23
2019-02-02T03:28:00.236Z,37.75
2019-02-02T03:29:03.877Z,41.25
2019-02-02T03:30:13.304Z,39.30
2019-02-02T03:31:16.952Z,38.75
2019-02-02T03:32:20.615Z,44.30
2019-02-02T03:33:24.178Z,43.00
2019-02-02T03:34:27.777Z,38.00
2019-02-02T03:35:31.421Z,41.63
2019-02-02T03:36:35.056Z,40.58
2019-02-02T03:37:38.740Z,39.73
2019-02-02T03:38:42.323Z,40.63
2019-02-02T03:39:45.918Z,41.65
2019-02-02T03:40:49.566Z,42.90
2019-02-02T03:41:53.167Z,38.65
2019-02-02T03:42:56.787Z,43.25
2019-02-02T03:44:00.398Z,39.40
2019-02-02T03:45:05.213Z,43.75
2019-02-02T03:46:08.791Z,46.60
2019-02-02T03:47:12.393Z,43.80
2019-02-02T03:48:16.036Z,44.33
2019-02-02T03:49:19.640Z,39.60
2019-02-02T03:50:23.291Z,39.23
2019-02-02T03:51:26.944Z,44.42
2019-02-02T03:52:30.597Z,40.20
2019-02-02T03:53:34.236Z,42.43
2019-02-02T03:54:37.858Z,40.28
2019-02-02T03:55:41.444Z,43.48
2019-02-02T03:56:45.028Z,42.03
2019-02-02T03:57:48.784Z,42.05
2019-02-02T03:59:05.685Z,41.73
2019-02-02T03:59:58.340Z,43.63
2019-02-02T04:01:01.921Z,43.60
2019-02-02T04:02:05.570Z,43.90
2019-02-02T04:03:09.562Z,42.17
2019-02-02T04:04:13.316Z,41.08
2019-02-02T04:05:25.771Z,43.35
2019-02-02T04:06:29.417Z,39.23
2019-02-02T04:07:33.011Z,41.15
2019-02-02T04:08:36.720Z,40.25
2019-02-02T04:09:40.291Z,44.18
2019-02-02T04:10:43.867Z,47.70
2019-02-02T04:11:47.521Z,40.23
2019-02-02T04:12:51.182Z,42.15
2019-02-02T04:13:54.811Z,41.40
2019-02-02T04:14:58.489Z,46.33
2019-02-02T04:16:02.077Z,40.75
2019-02-02T04:17:05.718Z,40.98
2019-02-02T04:18:09.391Z,45.23
2019-02-02T04:19:13.046Z,44.67
2019-02-02T04:20:21.910Z,42.43
2019-02-02T04:21:25.501Z,43.38
2019-02-02T04:22:29.082Z,41.53
2019-02-02T04:23:32.731Z,47.08
2019-02-02T04:24:36.362Z,40.98
2019-02-02T04:25:39.952Z,41.45
2019-02-02T04:26:43.550Z,42.25
2019-02-02T04:27:47.153Z,42.53
2019-02-02T04:28:50.863Z,45.90
2019-02-02T04:29:54.567Z,47.13
2019-02-02T04:30:58.338Z,41.75
2019-02-02T04:32:02.002Z,47.30
2019-02-02T04:33:05.587Z,46.15
2019-02-02T04:34:09.170Z,42.70
2019-02-02T04:35:13.079Z,42.33
2019-02-02T04:36:16.734Z,51.68
2019-02-02T04:37:20.389Z,41.02
2019-02-02T04:38:23.970Z,46.10
2019-02-02T04:39:27.581Z,46.45
2019-02-02T04:40:31.244Z,43.73
2019-02-02T04:41:34.835Z,40.20
2019-02-02T04:42:38.531Z,43.08
2019-02-02T04:43:42.136Z,42.60
2019-02-02T04:44:45.787Z,45.73
2019-02-02T04:45:49.365Z,41.02
2019-02-02T04:46:52.948Z,43.42
2019-02-02T04:47:56.574Z,48.83
2019-02-02T04:49:00.181Z,39.42
2019-02-02T04:50:05.144Z,39.48
2019-02-02T04:51:08.725Z,41.88
2019-02-02T04:52:12.365Z,44.83
2019-02-02T04:53:15.979Z,44.50
2019-02-02T04:54:19.554Z,42.93
2019-02-02T04:55:23.166Z,46.10
2019-02-02T04:56:26.768Z,42.90
2019-02-02T04:57:30.372Z,49.03
2019-02-02T04:58:33.950Z,44.98
2019-02-02T04:59:37.556Z,46.05
2019-02-02T05:00:41.255Z,43.42
2019-02-02T05:01:44.843Z,42.73
2019-02-02T05:02:48.465Z,44.35
2019-02-02T05:03:52.048Z,47.62
2019-02-02T05:04:55.702Z,53.13
2019-02-02T05:05:59.346Z,55.03
2019-02-02T05:07:02.936Z,51.48
2019-02-02T05:08:06.701Z,49.48
2019-02-02T05:09:10.334Z,49.67
2019-02-02T05:10:16.653Z,44.25
2019-02-02T05:11:20.318Z,47.90
2019-02-02T05:12:23.911Z,49.42
2019-02-02T05:13:27.516Z,53.55
2019-02-02T05:14:31.143Z,49.58
2019-02-02T05:15:34.832Z,45.85
2019-02-02T05:16:38.483Z,50.78
2019-02-02T05:17:42.066Z,49.95
2019-02-02T05:18:45.731Z,51.90
2019-02-02T05:19:49.380Z,46.92
2019-02-02T05:20:52.965Z,52.93
2019-02-02T05:21:56.627Z,47.23
2019-02-02T05:23:00.232Z,51.73
2019-02-02T05:24:03.823Z,53.52
2019-02-02T05:25:08.986Z,51.10
2019-02-02T05:26:12.574Z,44.40
2019-02-02T05:27:16.172Z,52.38
2019-02-02T05:28:19.760Z,49.53
2019-02-02T05:29:23.366Z,57.80
2019-02-02T05:30:29.804Z,47.58
2019-02-02T05:31:33.491Z,52.67
2019-02-02T05:32:37.077Z,49.70
2019-02-02T05:33:40.657Z,46.30
2019-02-02T05:34:44.280Z,47.27
2019-02-02T05:35:47.858Z,56.25
2019-02-02T05:36:51.518Z,47.30
2019-02-02T05:37:55.185Z,51.48
2019-02-02T05:38:58.781Z,47.17
2019-02-02T05:40:02.462Z,50.98
2019-02-02T05:41:06.046Z,52.75
2019-02-02T05:42:09.713Z,47.48
2019-02-02T05:43:13.296Z,56.15
2019-02-02T05:44:16.888Z,49.63
2019-02-02T05:45:22.470Z,57.75
2019-02-02T05:46:26.143Z,43.13
2019-02-02T05:47:29.874Z,49.65
2019-02-02T05:48:33.479Z,52.78
2019-02-02T05:49:37.145Z,49.13
2019-02-02T05:50:40.781Z,47.35
2019-02-02T05:51:44.474Z,49.53
2019-02-02T05:52:48.095Z,49.42
2019-02-02T05:53:51.687Z,46.63
2019-02-02T05:54:55.264Z,51.98
2019-02-02T05:55:58.855Z,54.05
2019-02-02T05:57:02.490Z,49.33
2019-02-02T05:58:06.147Z,49.15
2019-02-02T05:59:09.761Z,50.00
2019-02-02T06:00:26.669Z,53.70
2019-02-02T06:01:30.322Z,51.73
2019-02-02T06:02:33.918Z,55.85
2019-02-02T06:03:37.581Z,52.73
2019-02-02T06:04:41.180Z,52.88
2019-02-02T06:05:44.808Z,55.43
2019-02-02T06:06:48.414Z,50.52
2019-02-02T06:07:52.006Z,56.18
2019-02-02T06:08:55.588Z,53.40
2019-02-02T06:09:59.179Z,55.83
2019-02-02T06:11:02.901Z,58.05
2019-02-02T06:12:06.491Z,53.48
2019-02-02T06:13:10.181Z,60.00
2019-02-02T06:14:13.746Z,59.88
2019-02-02T06:15:17.472Z,58.85
2019-02-02T06:16:21.166Z,59.90
2019-02-02T06:17:24.769Z,57.50
2019-02-02T06:18:28.412Z,56.35
2019-02-02T06:19:32.000Z,58.78
2019-02-02T06:20:35.590Z,58.38
2019-02-02T06:21:39.177Z,69.82
2019-02-02T06:22:42.762Z,75.75
2019-02-02T06:23:46.392Z,69.72
2019-02-02T06:24:52.626Z,56.45
2019-02-02T06:25:55.293Z,54.73
2019-02-02T06:26:58.876Z,54.33
2019-02-02T06:28:02.543Z,53.60
2019-02-02T06:29:06.260Z,52.17
2019-02-02T06:30:12.946Z,55.43
2019-02-02T06:31:16.538Z,54.67
2019-02-02T06:32:20.134Z,63.35
2019-02-02T06:33:23.790Z,56.85
2019-02-02T06:34:27.436Z,49.88
2019-02-02T06:35:31.169Z,51.28
2019-02-02T06:36:34.749Z,54.38
2019-02-02T06:37:38.326Z,52.05
2019-02-02T06:38:41.917Z,53.95
2019-02-02T06:39:45.553Z,47.98
2019-02-02T06:40:49.415Z,53.10
2019-02-02T06:41:53.025Z,64.80
2019-02-02T06:42:56.755Z,60.75
2019-02-02T06:44:00.335Z,68.55
2019-02-02T06:45:05.848Z,66.55
2019-02-02T06:46:09.449Z,60.90
2019-02-02T06:47:13.065Z,61.18
2019-02-02T06:48:16.737Z,73.20
2019-02-02T06:49:20.356Z,99.32
2019-02-02T06:50:23.931Z,72.78
2019-02-02T06:51:27.542Z,76.37
2019-02-02T06:52:31.225Z,50.08
2019-02-02T06:53:34.873Z,65.85
2019-02-02T06:54:38.450Z,63.20
2019-02-02T06:55:42.184Z,133.18
2019-02-02T06:56:45.779Z,95.42
2019-02-02T06:57:49.393Z,84.55
2019-02-02T06:58:53.067Z,70.47
2019-02-02T06:59:56.660Z,126.75
2019-02-02T07:01:00.265Z,90.05
2019-02-02T07:02:03.916Z,102.60
2019-02-02T07:03:07.512Z,93.82
2019-02-02T07:04:11.227Z,88.33
2019-02-02T07:05:15.117Z,87.05
2019-02-02T07:06:18.734Z,109.37
2019-02-02T07:07:22.488Z,62.43
2019-02-02T07:08:26.136Z,75.72
2019-02-02T07:09:29.764Z,63.95
2019-02-02T07:10:33.396Z,64.07
2019-02-02T07:11:36.989Z,51.33
2019-02-02T07:12:40.636Z,51.30
2019-02-02T07:13:44.227Z,51.77
2019-02-02T07:14:47.887Z,52.20
2019-02-02T07:15:51.562Z,51.28
2019-02-02T07:16:55.148Z,49.30
2019-02-02T07:17:58.907Z,59.60
2019-02-02T07:19:02.495Z,61.53
2019-02-02T07:20:09.818Z,60.33
2019-02-02T07:21:13.455Z,52.43
2019-02-02T07:22:17.047Z,59.15
2019-02-02T07:23:20.647Z,50.48
2019-02-02T07:24:24.237Z,49.30
2019-02-02T07:25:27.811Z,51.73
2019-02-02T07:26:31.442Z,72.82
2019-02-02T07:27:35.057Z,89.45
2019-02-02T07:28:38.647Z,81.75
2019-02-02T07:29:42.231Z,68.80
2019-02-02T07:30:45.842Z,67.17
2019-02-02T07:31:49.492Z,61.37
2019-02-02T07:32:53.331Z,62.00
2019-02-02T07:33:56.925Z,57.03
2019-02-02T07:35:00.541Z,53.95
2019-02-02T07:36:04.206Z,58.75
2019-02-02T07:37:07.873Z,54.18
2019-02-02T07:38:11.530Z,53.60
2019-02-02T07:39:15.132Z,51.98
2019-02-02T07:40:20.044Z,57.95
2019-02-02T07:41:23.656Z,51.63
2019-02-02T07:42:27.328Z,51.53
2019-02-02T07:43:30.932Z,57.20
2019-02-02T07:44:34.500Z,55.78
2019-02-02T07:45:38.180Z,58.90
2019-02-02T07:46:41.789Z,52.33
2019-02-02T07:47:45.421Z,47.50
2019-02-02T07:48:48.997Z,54.18
2019-02-02T07:49:52.609Z,63.42
2019-02-02T07:50:56.396Z,56.85
2019-02-02T07:52:00.037Z,52.17
2019-02-02T07:53:03.835Z,50.70
2019-02-02T07:54:07.407Z,55.23
2019-02-02T07:55:16.192Z,50.03
2019-02-02T07:56:19.866Z,50.33
2019-02-02T07:57:23.520Z,57.95
2019-02-02T07:58:27.099Z,52.17
2019-02-02T07:59:30.723Z,54.90
2019-02-02T08:00:40.733Z,51.75
2019-02-02T08:01:41.599Z,49.90
2019-02-02T08:02:45.192Z,51.02
2019-02-02T08:03:48.813Z,47.73
2019-02-02T08:04:52.406Z,51.95
2019-02-02T08:05:55.991Z,57.40
2019-02-02T08:06:59.640Z,54.75
2019-02-02T08:08:03.285Z,54.38
2019-02-02T08:09:08.614Z,58.68
2019-02-02T08:10:13.678Z,58.50
2019-02-02T08:11:17.438Z,58.35
2019-02-02T08:12:21.111Z,61.33
2019-02-02T08:13:24.733Z,56.37
2019-02-02T08:14:28.404Z,58.05
2019-02-02T08:15:33.537Z,54.77
2019-02-02T08:16:37.137Z,55.30
2019-02-02T08:17:40.800Z,51.90
2019-02-02T08:18:44.418Z,56.53
2019-02-02T08:19:48.034Z,56.58
2019-02-02T08:20:51.674Z,54.80
2019-02-02T08:21:55.305Z,55.00
2019-02-02T08:22:59.005Z,53.45
2019-02-02T08:24:02.685Z,56.25
2019-02-02T08:25:09.057Z,59.60
2019-02-02T08:26:12.657Z,54.80
2019-02-02T08:27:16.293Z,63.92
2019-02-02T08:28:21.781Z,60.40
2019-02-02T08:29:25.262Z,55.12
2019-02-02T08:30:31.033Z,60.67
2019-02-02T08:31:34.630Z,63.68
2019-02-02T08:32:38.316Z,64.53
2019-02-02T08:33:45.006Z,63.50
2019-02-02T08:34:47.373Z,63.05
2019-02-02T08:35:50.989Z,62.58
2019-02-02T08:36:54.652Z,61.55
2019-02-02T08:37:58.310Z,66.57
2019-02-02T08:39:01.975Z,62.45
2019-02-02T08:40:08.656Z,64.22
2019-02-02T08:41:12.362Z,63.70
2019-02-02T08:42:16.080Z,63.70
2019-02-02T08:43:19.805Z,66.40
2019-02-02T08:44:23.428Z,60.08
2019-02-02T08:45:27.030Z,69.82
2019-02-02T08:46:30.684Z,65.45
2019-02-02T08:47:34.311Z,62.00
2019-02-02T08:48:37.914Z,60.88
2019-02-02T08:49:41.523Z,65.85
2019-02-02T08:50:45.163Z,64.27
2019-02-02T08:51:48.956Z,68.67
2019-02-02T08:52:52.576Z,67.92
2019-02-02T08:53:56.233Z,71.45
2019-02-02T08:54:59.873Z,67.22
2019-02-02T08:56:03.482Z,72.72
2019-02-02T08:57:07.130Z,73.92
2019-02-02T08:58:10.802Z,67.53
2019-02-02T08:59:14.382Z,70.50
2019-02-02T09:00:21.353Z,68.50
2019-02-02T09:01:25.312Z,64.05
2019-02-02T09:02:29.444Z,69.92
2019-02-02T09:03:33.444Z,75.65
2019-02-02T09:04:37.240Z,74.32
2019-02-02T09:05:41.010Z,74.55
2019-02-02T09:06:44.629Z,76.22
2019-02-02T09:07:49.213Z,68.95
2019-02-02T09:08:53.584Z,72.08
2019-02-02T09:09:57.127Z,73.83
2019-02-02T09:11:00.798Z,68.65
2019-02-02T09:12:04.556Z,78.78
2019-02-02T09:13:08.235Z,86.12
2019-02-02T09:14:11.833Z,69.20
2019-02-02T09:15:17.617Z,79.92
2019-02-02T09:16:21.310Z,74.15
2019-02-02T09:17:25.007Z,78.57
2019-02-02T09:18:28.681Z,72.25
2019-02-02T09:19:32.251Z,74.80
2019-02-02T09:20:35.915Z,69.62
2019-02-02T09:21:39.548Z,71.75
2019-02-02T09:22:43.868Z,68.65
2019-02-02T09:23:47.556Z,78.95
2019-02-02T09:24:51.899Z,74.37
2019-02-02T09:25:55.739Z,81.15
2019-02-02T09:26:59.439Z,76.10
2019-02-02T09:28:03.015Z,69.05
2019-02-02T09:29:06.744Z,82.05
2019-02-02T09:30:15.464Z,69.20
2019-02-02T09:31:19.115Z,67.70
2019-02-02T09:32:22.715Z,77.27
2019-02-02T09:33:26.413Z,66.00
2019-02-02T09:34:30.089Z,72.53
2019-02-02T09:35:33.734Z,72.35
2019-02-02T09:36:37.478Z,64.25
2019-02-02T09:37:41.136Z,76.60
2019-02-02T09:38:44.733Z,79.20
2019-02-02T09:39:48.336Z,80.10
2019-02-02T09:40:52.087Z,73.57
2019-02-02T09:41:55.742Z,70.42
2019-02-02T09:42:59.473Z,68.80
2019-02-02T09:44:03.254Z,74.58
2019-02-02T09:45:12.516Z,76.50
2019-02-02T09:46:16.101Z,71.05
2019-02-02T09:47:20.227Z,68.20
2019-02-02T09:48:23.965Z,68.75
2019-02-02T09:49:27.624Z,71.35
2019-02-02T09:50:31.259Z,73.75
2019-02-02T09:51:34.860Z,72.53
2019-02-02T09:52:38.438Z,67.97
2019-02-02T09:53:42.155Z,68.35
2019-02-02T09:54:45.788Z,69.75
2019-02-02T09:55:49.511Z,74.75
2019-02-02T09:56:53.214Z,74.75
2019-02-02T09:58:02.952Z,73.97
2019-02-02T09:59:09.621Z,70.30
2019-02-02T10:00:17.676Z,73.07
2019-02-02T10:01:27.746Z,66.20
2019-02-02T10:02:27.149Z,70.87
2019-02-02T10:03:30.831Z,69.40
2019-02-02T10:04:34.538Z,69.45
2019-02-02T10:05:38.117Z,77.22
2019-02-02T10:06:41.741Z,69.55
2019-02-02T10:07:45.410Z,71.95
2019-02-02T10:08:49.158Z,67.90
2019-02-02T10:09:52.806Z,74.07
2019-02-02T10:10:56.433Z,72.85
2019-02-02T10:12:00.128Z,71.70
2019-02-02T10:13:04.314Z,67.03
2019-02-02T10:14:07.998Z,68.45
2019-02-02T10:15:12.246Z,65.80
2019-02-02T10:16:15.894Z,72.53
2019-02-02T10:17:19.589Z,77.32
2019-02-02T10:18:23.241Z,63.40
2019-02-02T10:19:26.837Z,76.77
2019-02-02T10:20:31.506Z,75.25
2019-02-02T10:21:35.168Z,77.53
2019-02-02T10:22:38.765Z,76.42
2019-02-02T10:23:42.393Z,64.82
2019-02-02T10:24:46.021Z,71.80
2019-02-02T10:25:49.724Z,67.32
2019-02-02T10:26:53.321Z,76.28
2019-02-02T10:27:57.101Z,64.85
2019-02-02T10:29:00.851Z,67.87
2019-02-02T10:30:07.536Z,74.82
2019-02-02T10:31:11.158Z,74.70
2019-02-02T10:32:14.820Z,69.07
2019-02-02T10:33:18.460Z,70.30
2019-02-02T10:34:22.234Z,68.90
2019-02-02T10:35:25.916Z,67.72
2019-02-02T10:36:29.772Z,65.87
2019-02-02T10:37:33.512Z,68.33
2019-02-02T10:38:37.217Z,70.55
2019-02-02T10:39:40.864Z,74.05
2019-02-02T10:40:44.555Z,77.60
2019-02-02T10:41:48.137Z,69.70
2019-02-02T10:42:51.801Z,66.00
2019-02-02T10:43:55.388Z,69.20
2019-02-02T10:44:59.040Z,76.90
2019-02-02T10:46:02.720Z,66.42
2019-02-02T10:47:06.504Z,78.83
2019-02-02T10:48:10.089Z,68.42
2019-02-02T10:49:13.697Z,68.95
2019-02-02T10:50:22.234Z,62.55
2019-02-02T10:51:25.883Z,66.05
2019-02-02T10:52:29.487Z,68.20
2019-02-02T10:53:33.179Z,76.02
2019-02-02T10:54:36.766Z,65.20
2019-02-02T10:55:40.414Z,67.20
2019-02-02T10:56:44.054Z,75.42
2019-02-02T10:57:47.793Z,64.75
2019-02-02T10:58:51.422Z,64.62
2019-02-02T10:59:55.061Z,70.50
2019-02-02T11:00:58.717Z,72.47
2019-02-02T11:02:02.296Z,67.75
2019-02-02T11:03:06.159Z,75.37
2019-02-02T11:04:09.811Z,79.05
2019-02-02T11:05:15.251Z,64.72
2019-02-02T11:06:18.935Z,70.85
2019-02-02T11:07:22.660Z,89.17
2019-02-02T11:08:26.275Z,83.95
2019-02-02T11:09:29.833Z,134.03
2019-02-02T11:10:35.391Z,90.53
2019-02-02T11:11:39.164Z,108.57
2019-02-02T11:12:42.818Z,88.07
2019-02-02T11:13:46.458Z,94.50
2019-02-02T11:14:50.138Z,111.12
2019-02-02T11:15:53.922Z,105.70
2019-02-02T11:16:57.522Z,216.88
2019-02-02T11:18:01.168Z,214.45
2019-02-02T11:19:05.093Z,166.73
2019-02-02T11:20:17.482Z,144.05
2019-02-02T11:21:19.745Z,112.97
2019-02-02T11:22:23.504Z,90.67
2019-02-02T11:23:27.080Z,90.00
2019-02-02T11:24:30.924Z,93.17
2019-02-02T11:25:34.760Z,165.37
2019-02-02T11:26:38.882Z,95.67
2019-02-02T11:27:42.571Z,147.95
2019-02-02T11:28:46.111Z,146.62
2019-02-02T11:29:49.914Z,87.05
2019-02-02T11:30:53.519Z,87.30
2019-02-02T11:32:03.056Z,74.50
2019-02-02T11:33:02.486Z,82.08
2019-02-02T11:34:06.214Z,94.77
2019-02-02T11:35:13.045Z,80.62
2019-02-02T11:36:16.686Z,77.42
2019-02-02T11:37:20.267Z,84.75
2019-02-02T11:38:23.928Z,79.65
2019-02-02T11:39:27.573Z,90.60
2019-02-02T11:40:33.208Z,140.95
2019-02-02T11:41:36.915Z,127.50
2019-02-02T11:42:41.393Z,125.95
2019-02-02T11:43:45.157Z,150.30
2019-02-02T11:44:48.756Z,109.07
2019-02-02T11:45:52.450Z,140.50
2019-02-02T11:46:56.089Z,163.62
2019-02-02T11:47:59.673Z,140.22
2019-02-02T11:49:03.423Z,100.67
2019-02-02T11:50:10.041Z,117.53
2019-02-02T11:51:13.627Z,123.58
2019-02-02T11:52:17.249Z,113.62
2019-02-02T11:53:20.933Z,96.50
2019-02-02T11:54:24.558Z,81.78
2019-02-02T11:55:28.977Z,166.80
2019-02-02T11:56:32.637Z,138.95
2019-02-02T11:57:36.357Z,114.55
2019-02-02T11:58:40.016Z,104.12
2019-02-02T11:59:43.665Z,93.05
2019-02-02T12:00:47.262Z,102.27
2019-02-02T12:01:50.902Z,110.22
2019-02-02T12:02:54.510Z,88.58
2019-02-02T12:03:58.239Z,104.83
2019-02-02T12:05:01.799Z,95.32
2019-02-02T12:06:05.501Z,102.47
2019-02-02T12:07:09.318Z,88.07
2019-02-02T12:08:12.898Z,79.37
2019-02-02T12:09:16.528Z,97.35
2019-02-02T12:10:22.694Z,79.60
2019-02-02T12:11:26.450Z,80.72
2019-02-02T12:12:30.160Z,73.57
2019-02-02T12:13:33.788Z,80.80
2019-02-02T12:14:37.398Z,72.25
2019-02-02T12:15:41.060Z,77.22
2019-02-02T12:16:44.644Z,77.82
2019-02-02T12:17:48.812Z,76.95
2019-02-02T12:18:52.446Z,70.08
2019-02-02T12:19:56.110Z,77.45
2019-02-02T12:20:59.730Z,72.95
2019-02-02T12:22:03.472Z,78.37
2019-02-02T12:23:07.164Z,83.07
2019-02-02T12:24:15.827Z,71.37
2019-02-02T12:25:16.427Z,74.55
2019-02-02T12:26:20.010Z,74.27
2019-02-02T12:27:23.676Z,74.45
2019-02-02T12:28:27.294Z,74.10
2019-02-02T12:29:30.891Z,79.27
2019-02-02T12:30:35.441Z,70.87
2019-02-02T12:31:39.218Z,72.27
2019-02-02T12:32:42.902Z,77.45
2019-02-02T12:33:46.528Z,68.78
2019-02-02T12:34:50.115Z,66.87
2019-02-02T12:35:53.701Z,77.55
2019-02-02T12:36:57.318Z,71.33
2019-02-02T12:38:01.003Z,82.88
2019-02-02T12:39:07.702Z,73.07
2019-02-02T12:40:16.529Z,78.42
2019-02-02T12:41:20.148Z,75.62
2019-02-02T12:42:23.744Z,75.20
2019-02-02T12:43:27.453Z,72.80
2019-02-02T12:44:31.056Z,76.40
2019-02-02T12:45:43.673Z,73.72
2019-02-02T12:46:47.308Z,73.02
2019-02-02T12:47:50.990Z,77.92
2019-02-02T12:48:54.618Z,74.65
2019-02-02T12:49:58.227Z,81.02
2019-02-02T12:51:01.938Z,83.30
2019-02-02T12:52:05.800Z,74.32
2019-02-02T12:53:09.414Z,77.35
2019-02-02T12:54:13.009Z,74.87
2019-02-02T12:55:16.616Z,80.05
2019-02-02T12:56:20.361Z,78.40
2019-02-02T12:57:24.142Z,79.10
2019-02-02T12:58:27.811Z,81.22
2019-02-02T12:59:31.471Z,80.25
2019-02-02T13:00:35.141Z,75.97
2019-02-02T13:01:38.851Z,82.00
2019-02-02T13:02:42.503Z,73.72
2019-02-02T13:03:46.245Z,82.20
2019-02-02T13:04:50.810Z,72.35
2019-02-02T13:05:54.429Z,72.17
2019-02-02T13:06:58.055Z,82.97
2019-02-02T13:08:01.664Z,74.22
2019-02-02T13:09:07.769Z,76.82
2019-02-02T13:10:30.487Z,77.47
2019-02-02T13:11:34.110Z,72.30
2019-02-02T13:12:37.694Z,80.72
2019-02-02T13:13:42.708Z,76.42
2019-02-02T13:14:46.447Z,73.50
2019-02-02T13:15:50.042Z,83.07
2019-02-02T13:16:53.634Z,78.40
2019-02-02T13:17:57.320Z,79.32
2019-02-02T13:19:00.907Z,78.92
2019-02-02T13:20:07.843Z,79.77
2019-02-02T13:21:11.431Z,70.87
2019-02-02T13:22:15.100Z,82.97
2019-02-02T13:23:18.724Z,81.87
2019-02-02T13:24:22.336Z,75.80
2019-02-02T13:25:25.988Z,82.60
2019-02-02T13:26:29.574Z,83.65
2019-02-02T13:27:33.218Z,78.10
2019-02-02T13:28:36.801Z,77.62
2019-02-02T13:29:40.411Z,73.30
2019-02-02T13:30:44.133Z,84.00
2019-02-02T13:31:47.760Z,79.90
2019-02-02T13:32:51.360Z,80.80
2019-02-02T13:33:54.960Z,72.40
2019-02-02T13:34:58.560Z,76.00
2019-02-02T13:36:02.356Z,72.08
2019-02-02T13:37:06.082Z,69.92
2019-02-02T13:38:09.718Z,78.67
2019-02-02T13:39:13.376Z,71.57
2019-02-02T13:40:19.319Z,81.40
2019-02-02T13:41:23.175Z,73.25
2019-02-02T13:42:26.837Z,75.45